Wilson Observed Data For Previous 48 Hours

Caption
Day and Hour Reservoir Elevation (behind dam)* Tailwater Elevation (below dam)* Average Hourly Discharge*
7/14/2018 1 AM CDT 506.88 414.24 14,503
7/14/2018 2 AM CDT 506.84 413.87 11,049
7/14/2018 3 AM CDT 506.87 413.83 10,987
7/14/2018 4 AM CDT 506.84 413.79 10,987
7/14/2018 5 AM CDT 506.83 413.51 10,993
7/14/2018 6 AM CDT 506.88 413.62 10,967
7/14/2018 7 AM CDT 506.96 414.00 11,092
7/14/2018 8 AM CDT 506.93 414.05 14,741
7/14/2018 9 AM CDT 507.00 413.92 14,733
7/14/2018 10 AM CDT 507.05 413.83 14,698
7/14/2018 11 AM CDT 507.02 414.44 14,810
7/14/2018 12 PM CDT 507.07 414.51 19,720
7/14/2018 1 PM CDT 507.05 414.71 25,941
7/14/2018 2 PM CDT 506.98 415.17 28,573
7/14/2018 3 PM CDT 506.93 415.48 34,703
7/14/2018 4 PM CDT 506.90 415.67 43,840
7/14/2018 5 PM CDT 506.76 415.67 43,853
7/14/2018 6 PM CDT 506.64 415.76 44,268
7/14/2018 7 PM CDT 506.54 414.87 27,913
7/14/2018 8 PM CDT 506.61 414.56 27,213
7/14/2018 9 PM CDT 506.63 414.66 26,828
7/14/2018 10 PM CDT 506.74 414.60 26,614
7/14/2018 11 PM CDT 506.81 414.59 26,186
7/15/2018 12 AM CDT 506.86 414.75 26,470
7/15/2018 1 AM CDT 506.94 415.08 26,845
7/15/2018 2 AM CDT 507.03 414.72 26,975
7/15/2018 3 AM CDT 507.08 414.69 26,003
7/15/2018 4 AM CDT 507.14 414.68 25,558
7/15/2018 5 AM CDT 507.28 414.70 26,202
7/15/2018 6 AM CDT 507.32 414.80 25,459
7/15/2018 7 AM CDT 507.37 415.09 26,360
7/15/2018 8 AM CDT 507.47 415.26 34,045
7/15/2018 9 AM CDT 507.45 415.52 34,368
7/15/2018 10 AM CDT 507.40 416.13 45,464
7/15/2018 11 AM CDT 507.40 415.98 45,926
7/15/2018 12 PM CDT 507.34 416.17 45,592
7/15/2018 1 PM CDT 507.33 415.94 45,851
7/15/2018 2 PM CDT 507.28 416.01 44,191
7/15/2018 3 PM CDT 507.22 415.94 43,855
7/15/2018 4 PM CDT 507.25 415.94 45,339
7/15/2018 5 PM CDT 507.20 415.94 45,315
7/15/2018 6 PM CDT 507.21 416.14 45,562
7/15/2018 7 PM CDT 507.20 415.38 36,349
7/15/2018 8 PM CDT 507.20 414.85 28,562
7/15/2018 9 PM CDT 507.21 414.80 27,340
7/15/2018 10 PM CDT 507.24 414.87 27,560
7/15/2018 11 PM CDT 507.21 414.95 27,659
7/16/2018 12 AM CDT 507.23 414.99 27,149
7/16/2018 1 AM CDT 507.25 414.86 27,017

Elevations are in feet above sea level. Discharges are in cubic feet per second and are reported at the end of the hour.